Time;durP1;ratioP1;P1;durP2;ratioP2;P2;SDS_P1;SDS_P2;PMS_P1;PMS_P2;Temp;Humidity;BMP_temperature;BMP_pressure;BME280_temperature;BME280_humidity;BME280_pressure;Samples;Min_cycle;Max_cycle;Signal;HPM_P1;HPM_P2
2022/01/08 00:00:15;;;;;;;46.45;19.35;;;-2.90;99.90;;;;;;4973594;28;20047;-79
2022/01/08 00:02:42;;;;;;;43.78;17.75;;;-2.90;99.90;;;;;;4956273;29;20091;-79
2022/01/08 00:05:09;;;;;;;46.63;18.25;;;-2.90;99.90;;;;;;4956894;29;20098;-82
2022/01/08 00:07:35;;;;;;;48.20;18.35;;;-2.90;99.90;;;;;;4973023;29;20026;-79
2022/01/08 00:10:01;;;;;;;;;;;-3.00;99.90;;;;;;4956602;29;20035;-81
2022/01/08 00:12:26;;;;;;;27.70;11.68;;;-3.00;99.90;;;;;;4956243;29;19923;-80
2022/01/08 00:14:52;;;;;;;;;;;-3.00;99.90;;;;;;4957795;29;20035;-81
2022/01/08 00:17:19;;;;;;;14.48;7.22;;;-3.00;99.90;;;;;;4974074;29;19911;-80
2022/01/08 00:19:45;;;;;;;21.52;9.52;;;-3.00;99.90;;;;;;4977973;28;20004;-81
2022/01/08 00:22:11;;;;;;;;;;;-3.00;99.90;;;;;;4976203;28;20055;-80
2022/01/08 00:24:37;;;;;;;26.05;10.98;;;-3.00;99.90;;;;;;4957981;29;19941;-80
2022/01/08 00:27:04;;;;;;;25.20;10.93;;;-2.90;99.90;;;;;;4956466;29;20742;-80
2022/01/08 00:29:30;;;;;;;27.67;11.73;;;-3.00;99.90;;;;;;4957839;29;20015;-81
2022/01/08 00:31:55;;;;;;;;;;;-3.00;99.90;;;;;;4956032;29;20043;-79
2022/01/08 00:34:21;;;;;;;23.25;11.13;;;-3.00;99.90;;;;;;4956703;29;19917;-80
2022/01/08 00:36:46;;;;;;;21.13;9.75;;;-3.00;99.90;;;;;;4956542;29;20035;-79
2022/01/08 00:39:12;;;;;;;;;;;-3.00;99.90;;;;;;4957189;29;20047;-81
2022/01/08 00:41:38;;;;;;;17.52;7.78;;;-3.10;99.90;;;;;;4956852;29;19914;-80
2022/01/08 00:44:03;;;;;;;;;;;-3.10;99.90;;;;;;4973369;29;20449;-80
2022/01/08 00:46:29;;;;;;;23.08;7.88;;;-3.10;99.90;;;;;;4958712;29;20299;-80
2022/01/08 00:48:54;;;;;;;;;;;-3.10;99.90;;;;;;4960923;29;20015;-80
2022/01/08 00:51:20;;;;;;;23.05;8.63;;;-3.10;99.90;;;;;;4958460;29;19910;-81
2022/01/08 00:53:46;;;;;;;;;;;-3.10;99.90;;;;;;4973347;29;20027;-81
2022/01/08 00:56:14;;;;;;;15.38;6.07;;;-3.10;99.90;;;;;;4956404;29;19997;-79
2022/01/08 00:58:41;;;;;;;12.43;4.95;;;-3.10;99.90;;;;;;4954308;29;20028;-79
2022/01/08 01:01:06;;;;;;;12.40;5.07;;;-3.10;99.90;;;;;;4972001;29;20030;-81
2022/01/08 01:03:32;;;;;;;;;;;-3.00;99.90;;;;;;4956964;29;20063;-80
2022/01/08 01:05:57;;;;;;;12.38;4.80;;;-2.90;99.90;;;;;;4972601;29;19922;-79
2022/01/08 01:08:23;;;;;;;11.63;4.43;;;-2.80;99.90;;;;;;4956221;29;20091;-80
2022/01/08 01:10:49;;;;;;;9.07;4.20;;;-2.70;99.90;;;;;;4956199;29;20028;-80
2022/01/08 01:13:14;;;;;;;;;;;-2.70;99.90;;;;;;4960887;29;20050;-80
2022/01/08 01:15:40;;;;;;;12.15;5.28;;;-2.60;99.90;;;;;;4960430;29;19907;-80
2022/01/08 01:18:06;;;;;;;;;;;-2.40;99.90;;;;;;4960041;29;20039;-82
2022/01/08 01:20:32;;;;;;;11.20;4.93;;;-2.40;99.90;;;;;;4976718;29;19922;-80
2022/01/08 01:23:05;;;;;;;;;;;-2.30;99.90;;;;;;4960544;29;20035;-81
2022/01/08 01:25:39;;;;;;;10.35;4.95;;;-2.30;99.90;;;;;;4975727;29;19906;-80
2022/01/08 01:49:26;;;;;;;19.48;8.35;;;-2.50;99.90;;;;;;4979806;28;20115;-82
2022/01/08 01:51:52;;;;;;;;;;;-2.40;99.90;;;;;;4959775;29;20027;-82
2022/01/08 01:54:17;;;;;;;12.45;5.07;;;-2.40;99.90;;;;;;4973835;29;19945;-81
2022/01/08 01:56:43;;;;;;;;;;;-2.30;99.90;;;;;;4956872;29;20042;-81
2022/01/08 01:59:09;;;;;;;10.35;4.30;;;-2.30;99.90;;;;;;4957332;29;20003;-81
2022/01/08 02:01:34;;;;;;;;;;;-2.30;99.90;;;;;;4973422;29;20037;-80
2022/01/08 02:04:00;;;;;;;9.90;4.47;;;-2.40;99.90;;;;;;4956419;29;19910;-80
2022/01/08 02:06:25;;;;;;;;;;;-2.20;99.90;;;;;;4958092;29;20521;-80
2022/01/08 02:08:51;;;;;;;13.13;5.13;;;-2.30;99.90;;;;;;4957542;29;19978;-81
2022/01/08 02:11:19;;;;;;;;;;;-2.30;99.90;;;;;;4958244;29;20090;-81
2022/01/08 02:13:45;;;;;;;12.82;5.55;;;-2.20;99.90;;;;;;4957691;29;19906;-81
2022/01/08 02:16:16;;;;;;;;;;;-2.20;99.90;;;;;;4975643;29;20051;-81
2022/01/08 02:18:46;;;;;;;11.77;6.45;;;-2.20;99.90;;;;;;4973680;29;19969;-82
2022/01/08 02:21:13;;;;;;;11.50;5.25;;;-2.20;99.90;;;;;;4957401;29;20028;-80
2022/01/08 02:23:41;;;;;;;11.95;4.50;;;-2.10;99.90;;;;;;4957194;29;20122;-81
2022/01/08 02:26:09;;;;;;;11.65;4.00;;;-2.10;99.90;;;;;;4956492;29;20031;-81
2022/01/08 02:28:36;;;;;;;9.35;4.85;;;-2.20;99.90;;;;;;4972639;29;20042;-81
2022/01/08 02:31:03;;;;;;;9.50;4.32;;;-2.20;99.90;;;;;;4957642;29;20027;-79
2022/01/08 02:33:29;;;;;;;15.40;6.43;;;-2.20;99.90;;;;;;4956982;29;20034;-81
2022/01/08 02:35:56;;;;;;;19.27;8.85;;;-2.20;99.90;;;;;;4957002;29;20119;-81
2022/01/08 02:38:23;;;;;;;23.35;9.73;;;-2.20;99.90;;;;;;4956609;29;20059;-81
2022/01/08 02:41:00;;;;;;;20.33;9.35;;;-2.20;99.90;;;;;;4974235;29;20078;-80
2022/01/08 02:43:28;;;;;;;19.70;6.80;;;-2.20;99.90;;;;;;4975757;29;20048;-82
2022/01/08 02:45:54;;;;;;;14.60;6.13;;;-2.30;99.90;;;;;;4957635;29;20087;-80
2022/01/08 02:48:20;;;;;;;15.40;6.78;;;-2.30;99.90;;;;;;4974919;29;20030;-81
2022/01/08 02:50:46;;;;;;;;;;;-2.30;99.90;;;;;;4958062;29;20031;-80
2022/01/08 02:53:11;;;;;;;12.23;6.40;;;-2.30;99.90;;;;;;4975032;28;19901;-81
2022/01/08 02:55:37;;;;;;;;;;;-2.30;99.90;;;;;;4957968;29;20023;-81
2022/01/08 02:58:03;;;;;;;14.60;6.63;;;-2.30;99.90;;;;;;4958300;29;19969;-81
2022/01/08 03:00:29;;;;;;;;;;;-2.30;99.90;;;;;;4975604;28;20034;-81
2022/01/08 03:02:54;;;;;;;15.02;7.05;;;-2.30;99.90;;;;;;4958571;29;19914;-81
2022/01/08 03:05:20;;;;;;;;;;;-2.30;99.90;;;;;;4958710;29;20031;-82
2022/01/08 03:07:47;;;;;;;16.40;6.80;;;-2.30;99.90;;;;;;4974975;28;19939;-81
2022/01/08 03:10:16;;;;;;;16.25;6.55;;;-2.30;99.90;;;;;;4956272;29;20027;-80
2022/01/08 03:12:42;;;;;;;17.38;6.70;;;-2.30;99.90;;;;;;4956886;29;20027;-81
2022/01/08 03:15:19;;;;;;;16.92;7.80;;;-2.30;99.90;;;;;;4974109;29;20094;-80
2022/01/08 03:17:46;;;;;;;25.65;9.88;;;-2.30;99.90;;;;;;4975564;29;20035;-82
2022/01/08 03:20:14;;;;;;;28.55;9.35;;;-2.30;99.90;;;;;;4957886;28;20042;-81
2022/01/08 03:22:42;;;;;;;26.08;10.35;;;-2.30;99.90;;;;;;4974950;29;20034;-82
2022/01/08 03:25:09;;;;;;;26.25;9.13;;;-2.30;99.90;;;;;;4960719;29;20064;-82
2022/01/08 03:27:35;;;;;;;20.75;9.60;;;-2.30;99.90;;;;;;4958640;29;20027;-81
2022/01/08 03:30:01;;;;;;;17.77;7.35;;;-2.30;99.90;;;;;;4956270;29;20078;-81
2022/01/08 03:32:27;;;;;;;13.55;4.60;;;-2.30;99.90;;;;;;4972457;29;20031;-80
2022/01/08 03:34:53;;;;;;;;;;;-2.30;99.90;;;;;;4954480;29;20515;-81
2022/01/08 03:37:18;;;;;;;14.80;6.25;;;-2.30;99.90;;;;;;4956289;29;19978;-81
2022/01/08 03:39:44;;;;;;;;;;;-2.30;99.90;;;;;;4972192;29;20123;-81
2022/01/08 03:42:10;;;;;;;44.22;20.52;;;-2.30;99.90;;;;;;4973445;29;20011;-82
2022/01/08 03:44:36;;;;;;;;;;;-2.30;99.90;;;;;;4972811;28;20035;-80
2022/01/08 03:47:23;;;;;;;12.35;6.10;;;-2.30;99.90;;;;;;4972890;29;19906;-81
2022/01/08 03:49:49;;;;;;;13.05;5.35;;;-2.30;99.90;;;;;;4955773;29;20110;-81
2022/01/08 03:52:15;;;;;;;;;;;-2.30;99.90;;;;;;4973066;29;20034;-82
2022/01/08 03:54:41;;;;;;;23.35;7.68;;;-2.30;99.90;;;;;;4971730;29;19917;-81
2022/01/08 03:57:06;;;;;;;;;;;-2.30;99.90;;;;;;4955088;29;20047;-80
2022/01/08 03:59:32;;;;;;;8.60;3.10;;;-2.30;99.90;;;;;;4973202;29;19912;-81
2022/01/08 04:01:58;;;;;;;;;;;-2.30;99.90;;;;;;4972688;29;20115;-81
2022/01/08 04:04:24;;;;;;;11.10;4.30;;;-2.30;99.90;;;;;;4955735;29;19913;-80
2022/01/08 04:06:50;;;;;;;10.43;3.80;;;-2.30;99.90;;;;;;4955836;29;20094;-82
2022/01/08 04:09:16;;;;;;;;;;;-2.30;99.90;;;;;;4956241;29;20038;-80
2022/01/08 04:11:43;;;;;;;7.85;3.33;;;-2.20;99.90;;;;;;4956274;29;19922;-82
2022/01/08 04:14:08;;;;;;;10.20;3.63;;;-2.20;99.90;;;;;;4957026;29;20043;-81
2022/01/08 04:16:37;;;;;;;;;;;-2.20;99.90;;;;;;4974443;29;20035;-82
2022/01/08 04:19:03;;;;;;;21.33;6.55;;;-2.20;99.90;;;;;;4972899;29;19906;-81
2022/01/08 04:24:01;;;;;;;21.83;9.95;;;-2.10;99.90;;;;;;4972826;29;19925;-80
2022/01/08 04:26:27;;;;;;;19.88;8.45;;;-2.10;99.90;;;;;;4973176;29;20032;-81
2022/01/08 04:28:54;;;;;;;16.50;7.55;;;-2.10;99.90;;;;;;4972456;29;20024;-81
2022/01/08 04:31:20;;;;;;;11.88;6.18;;;-2.10;99.90;;;;;;4974501;29;20011;-81
2022/01/08 04:33:46;;;;;;;12.57;5.93;;;-2.00;99.90;;;;;;4956634;29;20020;-80
2022/01/08 04:36:11;;;;;;;;;;;-2.00;99.90;;;;;;4956774;29;20038;-81
2022/01/08 04:38:37;;;;;;;13.32;5.00;;;-2.10;99.90;;;;;;4972243;29;19930;-81
2022/01/08 04:41:02;;;;;;;;;;;-2.00;99.90;;;;;;4956220;29;20063;-80
2022/01/08 04:43:29;;;;;;;20.38;8.25;;;-2.10;99.90;;;;;;4972471;29;19941;-80
2022/01/08 04:45:55;;;;;;;17.42;8.98;;;-2.00;99.90;;;;;;4960165;29;20023;-81
2022/01/08 04:48:21;;;;;;;;;;;-2.00;99.90;;;;;;4959865;29;20041;-82
2022/01/08 04:50:46;;;;;;;11.43;5.88;;;-2.00;99.90;;;;;;4959171;29;19911;-81
2022/01/08 04:53:12;;;;;;;;;;;-2.00;99.90;;;;;;4975812;29;20024;-81
2022/01/08 04:55:38;;;;;;;12.38;5.22;;;-2.00;99.90;;;;;;4959509;29;19918;-81
2022/01/08 04:58:05;;;;;;;10.50;4.82;;;-2.00;99.90;;;;;;4958498;29;20027;-80
2022/01/08 05:00:31;;;;;;;13.85;5.85;;;-2.00;99.90;;;;;;4975236;29;20008;-80
2022/01/08 05:02:58;;;;;;;16.48;6.90;;;-2.00;99.90;;;;;;4960291;29;20027;-82
2022/01/08 05:05:24;;;;;;;72.80;27.60;;;-2.00;99.90;;;;;;4960116;29;20042;-81
2022/01/08 05:07:50;;;;;;;40.58;16.85;;;-1.90;99.90;;;;;;4959489;29;20075;-81
2022/01/08 05:10:16;;;;;;;;;;;-1.90;99.90;;;;;;4959585;29;20827;-81
2022/01/08 05:12:42;;;;;;;18.83;7.97;;;-2.00;99.90;;;;;;4975688;28;19910;-81
2022/01/08 05:15:07;;;;;;;;;;;-2.00;99.90;;;;;;4959779;29;20032;-80
2022/01/08 05:17:38;;;;;;;16.60;7.72;;;-2.00;99.90;;;;;;4975404;29;19977;-81
2022/01/08 05:20:07;;;;;;;21.55;8.43;;;-2.00;99.90;;;;;;4959424;29;20011;-80
2022/01/08 05:25:15;;;;;;;19.27;7.68;;;-2.00;99.90;;;;;;4976068;29;20104;-81
2022/01/08 05:27:41;;;;;;;21.08;7.82;;;-2.00;99.90;;;;;;4957707;29;20086;-81
2022/01/08 05:30:07;;;;;;;;;;;-2.00;99.90;;;;;;4958598;29;20026;-81
2022/01/08 05:32:33;;;;;;;25.23;10.25;;;-1.90;99.90;;;;;;4957461;29;19910;-81
2022/01/08 05:34:59;;;;;;;;;;;-1.90;99.90;;;;;;4958824;29;20016;-80
2022/01/08 05:37:25;;;;;;;19.50;7.10;;;-1.80;99.90;;;;;;4957003;29;19949;-81
2022/01/08 05:39:51;;;;;;;;;;;-1.90;99.90;;;;;;4957974;29;20035;-80
2022/01/08 05:42:18;;;;;;;14.23;4.55;;;-1.90;99.90;;;;;;4958447;29;19975;-81
2022/01/08 05:44:43;;;;;;;10.48;4.15;;;-1.90;99.90;;;;;;4975160;29;20027;-81
2022/01/08 05:47:09;;;;;;;;;;;-1.90;99.90;;;;;;4959034;29;20051;-81
2022/01/08 05:49:35;;;;;;;17.80;5.63;;;-1.90;99.90;;;;;;4958072;29;19907;-80
2022/01/08 05:52:03;;;;;;;;;;;-2.00;99.90;;;;;;4956789;29;20035;-79
2022/01/08 05:54:29;;;;;;;9.65;4.15;;;-1.90;99.90;;;;;;4973659;29;19891;-80
2022/01/08 05:56:55;;;;;;;;;;;-1.90;99.90;;;;;;4967250;28;20038;-81
2022/01/08 05:59:26;;;;;;;10.07;4.53;;;-1.90;99.90;;;;;;4959334;29;19969;-79
2022/01/08 06:01:53;;;;;;;40.63;17.00;;;-1.90;99.90;;;;;;4959945;29;20060;-80
2022/01/08 06:04:19;;;;;;;30.27;13.07;;;-1.80;99.90;;;;;;4946192;29;20050;-79
2022/01/08 06:06:45;;;;;;;;;;;-1.80;99.90;;;;;;4953319;29;20019;-81
2022/01/08 06:09:11;;;;;;;30.75;13.18;;;-1.90;99.90;;;;;;4950332;29;19906;-80
2022/01/08 06:11:36;;;;;;;;;;;-1.90;99.90;;;;;;4950141;29;20574;-81
2022/01/08 06:14:02;;;;;;;28.95;12.02;;;-2.00;99.90;;;;;;4973956;29;19906;-80
2022/01/08 06:16:33;;;;;;;;;;;-2.00;99.90;;;;;;4957112;29;20054;-80
2022/01/08 06:19:03;;;;;;;41.10;17.27;;;-2.10;99.90;;;;;;4953490;29;19917;-81
2022/01/08 06:21:29;;;;;;;38.38;17.95;;;-2.10;99.90;;;;;;4970531;29;20030;-80
2022/01/08 06:23:54;;;;;;;;;;;-2.20;99.90;;;;;;4971575;29;20491;-79
2022/01/08 06:26:20;;;;;;;60.70;25.17;;;-2.20;99.90;;;;;;4954938;29;19997;-81
2022/01/08 06:28:45;;;;;;;;;;;-2.20;99.90;;;;;;4953130;29;20035;-81
2022/01/08 06:31:11;;;;;;;50.03;24.83;;;-2.20;99.90;;;;;;4938392;29;20383;-78
2022/01/08 06:33:36;;;;;;;;;;;-2.20;99.90;;;;;;4955118;29;20031;-80
2022/01/08 06:36:02;;;;;;;62.72;29.60;;;-2.20;99.90;;;;;;4940139;29;19907;-80
2022/01/08 06:38:28;;;;;;;;;;;-2.20;99.90;;;;;;4955520;28;20086;-80
2022/01/08 06:40:53;;;;;;;55.35;22.90;;;-2.10;99.90;;;;;;4957994;29;19914;-81
2022/01/08 06:43:19;;;;;;;;;;;-2.20;99.90;;;;;;4946484;29;20100;-81
2022/01/08 06:45:47;;;;;;;59.70;27.35;;;-2.10;99.90;;;;;;4962331;29;19906;-83
2022/01/08 06:48:13;;;;;;;109.97;45.17;;;-2.10;99.90;;;;;;4957887;28;20036;-80
2022/01/08 06:50:38;;;;;;;;;;;-2.20;99.90;;;;;;4954799;29;20156;-80
2022/01/08 06:53:04;;;;;;;107.45;42.05;;;-2.10;99.90;;;;;;4975063;29;19906;-81
2022/01/08 06:55:30;;;;;;;;;;;-2.20;99.90;;;;;;4974881;29;20027;-81
2022/01/08 06:57:56;;;;;;;92.13;37.15;;;-2.10;99.90;;;;;;4957124;29;19910;-81
2022/01/08 07:00:22;;;;;;;106.72;44.55;;;-2.10;99.90;;;;;;4959239;29;20448;-80
2022/01/08 07:02:48;;;;;;;97.68;41.60;;;-2.10;99.90;;;;;;4959125;29;20031;-81
2022/01/08 07:05:13;;;;;;;;;;;-2.10;99.90;;;;;;4958951;29;20038;-80
2022/01/08 07:07:39;;;;;;;77.82;33.38;;;-2.10;99.90;;;;;;4959111;29;20349;-80
2022/01/08 07:10:05;;;;;;;;;;;-2.00;99.90;;;;;;4977189;28;20014;-82
2022/01/08 07:12:30;;;;;;;89.25;41.15;;;-2.00;99.90;;;;;;4961490;29;19906;-81
2022/01/08 07:14:56;;;;;;;;;;;-1.90;99.90;;;;;;4978207;29;20019;-81
2022/01/08 07:17:22;;;;;;;68.97;28.75;;;-1.90;99.90;;;;;;4961175;29;19906;-83
2022/01/08 07:19:47;;;;;;;;;;;-1.80;99.90;;;;;;4978445;29;20038;-81
2022/01/08 07:22:13;;;;;;;31.13;12.68;;;-1.70;99.90;;;;;;4961048;29;19973;-81
2022/01/08 07:24:38;;;;;;;;;;;-1.60;99.90;;;;;;4960920;29;20038;-81
2022/01/08 07:27:04;;;;;;;20.85;7.35;;;-1.70;99.90;;;;;;4976836;29;19907;-83
2022/01/08 07:29:30;;;;;;;;;;;-1.60;99.90;;;;;;4977524;28;20063;-81
2022/01/08 07:31:55;;;;;;;15.05;5.88;;;-1.70;99.90;;;;;;4960310;29;19891;-80
2022/01/08 07:34:21;;;;;;;;;;;-1.70;99.90;;;;;;4977556;29;20058;-82
2022/01/08 07:36:46;;;;;;;21.38;8.32;;;-1.80;99.90;;;;;;4959949;29;19898;-81
2022/01/08 07:39:12;;;;;;;;;;;-1.80;99.90;;;;;;4960506;29;20047;-81
2022/01/08 07:41:38;;;;;;;18.00;6.97;;;-1.80;99.90;;;;;;4960180;29;19963;-82
2022/01/08 07:44:03;;;;;;;;;;;-1.80;99.90;;;;;;4960581;29;20035;-82
2022/01/08 07:46:29;;;;;;;16.48;7.55;;;-1.80;99.90;;;;;;4963655;28;19909;-81
2022/01/08 07:48:54;;;;;;;;;;;-1.80;99.90;;;;;;4960769;29;20055;-81
2022/01/08 07:51:20;;;;;;;36.88;16.92;;;-1.90;99.90;;;;;;4957705;29;19967;-81
2022/01/08 07:53:46;;;;;;;;;;;-1.80;99.90;;;;;;4962226;29;20062;-82
2022/01/08 07:56:12;;;;;;;47.80;21.65;;;-1.70;99.90;;;;;;4962650;29;19906;-83
2022/01/08 07:58:37;;;;;;;;;;;-1.60;99.90;;;;;;4961467;29;20015;-82
2022/01/08 08:01:03;;;;;;;60.45;23.88;;;-1.50;99.90;;;;;;4958944;29;19914;-80
2022/01/08 08:03:29;;;;;;;;;;;-1.40;99.90;;;;;;4960717;29;20042;-81
2022/01/08 08:05:54;;;;;;;65.15;28.05;;;-1.20;99.90;;;;;;4976594;29;19926;-83
2022/01/08 08:08:21;;;;;;;61.53;27.88;;;-0.70;99.90;;;;;;4959755;29;20027;-82
2022/01/08 08:10:50;;;;;;;66.88;25.70;;;-0.20;99.90;;;;;;4960888;29;20019;-82
2022/01/08 08:13:17;;;;;;;44.88;19.25;;;0.30;99.90;;;;;;4965284;29;20408;-80
2022/01/08 08:15:42;;;;;;;25.50;11.20;;;0.70;99.90;;;;;;4950503;29;20027;-80
2022/01/08 08:18:08;;;;;;;;;;;1.00;99.90;;;;;;4957095;29;20079;-83
2022/01/08 08:20:34;;;;;;;14.48;6.70;;;1.40;96.40;;;;;;4960304;29;19899;-82
2022/01/08 08:23:00;;;;;;;;;;;1.60;95.20;;;;;;4964588;29;20023;-82
2022/01/08 08:25:26;;;;;;;18.50;8.75;;;1.90;90.70;;;;;;4981523;29;19907;-83
2022/01/08 08:27:51;;;;;;;;;;;2.20;91.00;;;;;;4965757;28;20082;-83
2022/01/08 08:30:17;;;;;;;11.25;6.65;;;2.60;75.80;;;;;;4964967;28;19941;-80
2022/01/08 08:35:18;;;;;;;12.27;5.78;;;3.30;73.30;;;;;;5026475;23;19913;-83
2022/01/08 08:37:44;;;;;;;11.32;6.65;;;3.90;72.50;;;;;;4982358;28;20019;-81
2022/01/08 08:40:11;;;;;;;;;;;4.30;66.10;;;;;;4966511;28;20164;-82
2022/01/08 08:42:37;;;;;;;16.67;9.10;;;4.80;60.80;;;;;;4966567;29;19925;-82
2022/01/08 08:45:03;;;;;;;;;;;5.10;59.80;;;;;;4984206;28;20270;-83
2022/01/08 08:47:29;;;;;;;14.20;7.65;;;5.30;56.70;;;;;;4983930;28;19942;-82
2022/01/08 08:49:55;;;;;;;;;;;5.20;56.20;;;;;;4984158;28;20068;-81
2022/01/08 08:52:23;;;;;;;19.52;9.10;;;5.00;54.70;;;;;;4983641;28;19901;-81
2022/01/08 08:54:50;;;;;;;18.15;8.48;;;4.70;55.00;;;;;;4983511;28;20007;-81
2022/01/08 08:57:15;;;;;;;19.25;9.52;;;4.60;55.60;;;;;;4983314;28;20027;-82
2022/01/08 08:59:41;;;;;;;14.40;8.10;;;4.40;55.60;;;;;;4963472;28;20069;-80
2022/01/08 09:02:08;;;;;;;;;;;4.40;54.90;;;;;;4963030;29;20041;-81
2022/01/08 09:04:34;;;;;;;15.38;7.15;;;4.40;54.90;;;;;;4979396;29;19930;-80
2022/01/08 09:06:59;;;;;;;;;;;4.20;54.90;;;;;;4980024;29;20540;-81
2022/01/08 09:09:27;;;;;;;15.00;6.68;;;4.00;51.90;;;;;;4961301;29;19934;-82
2022/01/08 09:11:53;;;;;;;15.80;9.35;;;3.80;54.60;;;;;;4961114;29;20099;-82
2022/01/08 09:14:19;;;;;;;26.38;13.55;;;3.60;55.30;;;;;;4960797;29;20023;-81
2022/01/08 09:16:48;;;;;;;27.95;14.00;;;3.60;56.90;;;;;;4961480;29;20031;-81
2022/01/08 09:19:15;;;;;;;27.30;14.30;;;3.60;57.20;;;;;;4962564;29;20007;-80
2022/01/08 09:21:43;;;;;;;30.95;14.43;;;3.50;56.90;;;;;;4978570;29;20015;-82
2022/01/08 09:24:11;;;;;;;29.17;14.73;;;3.30;57.10;;;;;;4980354;28;20023;-81
2022/01/08 09:26:37;;;;;;;26.02;14.75;;;3.00;58.00;;;;;;4963758;29;20012;-80
2022/01/08 09:29:03;;;;;;;26.80;12.88;;;2.80;58.90;;;;;;4962860;29;20018;-81
2022/01/08 09:31:28;;;;;;;;;;;2.50;59.60;;;;;;4980603;28;20027;-81
2022/01/08 09:33:54;;;;;;;21.02;11.02;;;2.30;61.50;;;;;;4979946;29;19906;-82
2022/01/08 09:36:20;;;;;;;24.20;12.82;;;2.10;62.50;;;;;;4979417;28;20054;-83
2022/01/08 09:38:47;;;;;;;;;;;1.90;65.00;;;;;;4964986;28;20020;-81
2022/01/08 09:41:13;;;;;;;21.52;9.93;;;1.90;65.60;;;;;;4980470;28;19941;-82
2022/01/08 09:43:38;;;;;;;;;;;1.80;66.90;;;;;;4962530;28;20035;-81
2022/01/08 09:46:04;;;;;;;22.23;9.73;;;1.80;67.50;;;;;;4979078;29;19925;-80
2022/01/08 09:48:31;;;;;;;23.88;11.70;;;1.70;69.20;;;;;;4979313;28;20027;-80
2022/01/08 09:50:57;;;;;;;24.98;11.50;;;1.60;72.10;;;;;;4961800;29;20073;-82
2022/01/08 09:53:23;;;;;;;27.25;11.68;;;1.50;73.90;;;;;;4958626;29;20028;-79
2022/01/08 09:55:48;;;;;;;;;;;1.40;75.50;;;;;;4959278;29;20057;-78
2022/01/08 09:58:14;;;;;;;19.60;10.18;;;1.40;78.90;;;;;;4978074;29;19906;-80
2022/01/08 10:00:40;;;;;;;;;;;1.30;79.60;;;;;;4962161;29;20050;-80
2022/01/08 10:03:24;;;;;;;17.95;9.18;;;1.40;81.30;;;;;;4977520;29;19906;-79
2022/01/08 10:05:54;;;;;;;28.30;10.52;;;1.40;83.50;;;;;;4977259;29;20015;-79
2022/01/08 10:08:32;;;;;;;27.17;10.68;;;1.40;85.50;;;;;;4976297;29;20025;-80
2022/01/08 10:10:59;;;;;;;24.17;11.93;;;1.40;88.70;;;;;;4976526;28;20046;-80
2022/01/08 10:13:34;;;;;;;20.70;9.98;;;1.40;83.40;;;;;;4959148;29;20027;-79
2022/01/08 10:18:47;;;;;;;22.80;8.07;;;1.50;80.50;;;;;;4971861;28;20060;-78
2022/01/08 10:21:27;;;;;;;18.40;8.07;;;1.60;80.60;;;;;;4956879;29;20015;-78
2022/01/08 10:23:58;;;;;;;19.30;8.90;;;1.70;77.80;;;;;;4973477;29;20086;-78
2022/01/08 10:26:32;;;;;;;21.20;9.68;;;1.70;77.40;;;;;;4958106;29;20028;-78
2022/01/08 10:29:03;;;;;;;19.60;9.57;;;1.60;75.40;;;;;;4959153;29;20015;-78
2022/01/08 10:31:32;;;;;;;19.77;10.02;;;1.70;78.80;;;;;;4958409;29;20038;-79
2022/01/08 10:34:00;;;;;;;20.63;9.35;;;1.70;78.40;;;;;;4973128;29;20038;-79
2022/01/08 10:36:30;;;;;;;18.02;9.32;;;1.70;79.70;;;;;;4978557;29;20035;-82
2022/01/08 10:39:14;;;;;;;18.15;9.73;;;1.70;81.30;;;;;;4962535;29;20022;-83
2022/01/08 10:41:46;;;;;;;28.50;9.90;;;1.70;81.90;;;;;;4979076;28;20027;-82
2022/01/08 10:44:23;;;;;;;18.02;9.65;;;1.60;81.80;;;;;;4962066;29;20027;-82
2022/01/08 10:47:02;;;;;;;21.27;9.20;;;1.60;82.10;;;;;;4962063;28;20064;-82
2022/01/08 10:49:47;;;;;;;22.58;10.90;;;1.60;82.50;;;;;;4962760;29;20019;-83
2022/01/08 10:52:22;;;;;;;21.42;11.10;;;1.70;83.20;;;;;;4964598;28;20054;-83
2022/01/08 10:55:08;;;;;;;20.45;9.98;;;1.60;79.10;;;;;;4964392;28;20034;-83
2022/01/08 10:57:45;;;;;;;26.10;12.45;;;1.50;76.80;;;;;;4979441;28;20051;-81
2022/01/08 11:00:16;;;;;;;19.13;10.30;;;1.60;75.20;;;;;;4962055;28;20060;-81
2022/01/08 11:03:17;;;;;;;20.42;10.23;;;1.50;78.80;;;;;;4962132;28;20036;-81
2022/01/08 11:06:01;;;;;;;26.50;12.55;;;1.60;74.00;;;;;;4951253;28;20023;-81
2022/01/08 11:08:29;;;;;;;21.55;11.43;;;1.40;74.50;;;;;;4963700;29;20039;-81
2022/01/08 11:10:56;;;;;;;24.15;11.23;;;1.30;78.40;;;;;;4976139;28;20011;-78
2022/01/08 11:13:22;;;;;;;23.50;11.40;;;1.40;77.30;;;;;;4954740;29;20031;-78
2022/01/08 11:15:51;;;;;;;24.42;11.82;;;1.40;77.40;;;;;;4965794;29;20400;-83
2022/01/08 11:18:19;;;;;;;23.00;12.50;;;1.40;76.10;;;;;;4958937;28;20007;-83
2022/01/08 11:20:46;;;;;;;21.15;11.27;;;1.40;76.10;;;;;;4944704;29;20032;-82
2022/01/08 11:23:19;;;;;;;21.90;10.07;;;1.40;76.30;;;;;;4977708;29;20011;-82
2022/01/08 11:25:48;;;;;;;12.23;6.95;;;1.50;76.30;;;;;;4960887;29;20086;-81
2022/01/08 11:28:17;;;;;;;15.23;6.97;;;1.50;74.40;;;;;;4960382;29;20099;-81
2022/01/08 11:30:52;;;;;;;19.52;10.18;;;1.60;72.70;;;;;;4961497;29;20019;-82
2022/01/08 11:33:27;;;;;;;13.27;6.55;;;1.50;72.70;;;;;;4959574;29;20054;-82
2022/01/08 11:36:06;;;;;;;16.17;7.65;;;1.60;74.00;;;;;;4974529;28;20023;-81
2022/01/08 11:38:33;;;;;;;14.52;7.63;;;1.50;76.80;;;;;;4974904;29;20031;-80
2022/01/08 11:40:59;;;;;;;14.80;7.78;;;1.50;79.60;;;;;;4927310;29;20036;-82
2022/01/08 11:43:29;;;;;;;19.25;9.00;;;1.60;79.50;;;;;;4977193;29;20031;-82
2022/01/08 11:46:01;;;;;;;19.63;10.25;;;1.70;79.80;;;;;;4942476;29;20028;-83
2022/01/08 11:48:32;;;;;;;25.38;14.35;;;1.80;74.80;;;;;;4959825;28;20038;-84
2022/01/08 11:51:03;;;;;;;21.63;11.45;;;1.90;76.90;;;;;;4977147;28;20039;-83
2022/01/08 11:53:30;;;;;;;24.63;11.18;;;2.00;76.90;;;;;;4960509;29;20036;-84
2022/01/08 11:56:03;;;;;;;21.48;11.23;;;2.20;77.50;;;;;;4956739;29;20088;-83
2022/01/08 11:58:30;;;;;;;19.75;8.95;;;2.30;76.10;;;;;;4961519;28;20015;-81
2022/01/08 12:00:57;;;;;;;18.92;8.85;;;2.40;75.50;;;;;;4978672;28;20050;-82
2022/01/08 12:03:37;;;;;;;15.88;8.02;;;2.50;75.40;;;;;;4980135;28;20075;-82
2022/01/08 12:06:33;;;;;;;18.92;8.00;;;2.60;73.40;;;;;;4979979;28;20039;-80
2022/01/08 12:09:24;;;;;;;20.90;8.63;;;2.60;74.30;;;;;;4979093;28;20043;-81
2022/01/08 12:12:04;;;;;;;16.00;8.25;;;2.60;75.30;;;;;;4976946;28;20035;-81
2022/01/08 12:14:34;;;;;;;19.98;9.05;;;2.50;75.40;;;;;;4977642;29;20038;-81
2022/01/08 12:17:20;;;;;;;18.45;8.55;;;2.50;77.00;;;;;;4978935;28;20041;-81
2022/01/08 12:19:56;;;;;;;16.15;8.90;;;2.30;76.30;;;;;;4978178;28;20063;-81
2022/01/08 12:22:23;;;;;;;19.43;8.17;;;2.30;77.00;;;;;;4960306;28;20051;-81
2022/01/08 12:24:51;;;;;;;15.45;8.32;;;2.30;77.80;;;;;;4976363;28;20294;-81
2022/01/08 12:27:37;;;;;;;23.55;11.50;;;2.30;78.20;;;;;;4977318;29;20011;-81
2022/01/08 12:30:31;;;;;;;36.17;15.55;;;2.10;80.60;;;;;;4979228;28;20026;-80
2022/01/08 12:33:20;;;;;;;39.00;16.42;;;2.10;82.40;;;;;;4972027;28;20016;-81
2022/01/08 12:35:46;;;;;;;36.47;17.13;;;2.00;84.00;;;;;;4978108;28;20039;-81
2022/01/08 12:38:25;;;;;;;;;;;2.00;85.10;;;;;;4977507;28;20047;-81
2022/01/08 12:40:51;;;;;;;19.10;8.40;;;1.90;85.00;;;;;;4960249;29;19950;-80
2022/01/08 12:43:17;;;;;;;;;;;1.90;85.00;;;;;;4953724;29;20480;-79
2022/01/08 12:45:43;;;;;;;18.17;8.63;;;2.00;87.60;;;;;;4971136;28;19919;-80
2022/01/08 12:48:09;;;;;;;;;;;1.90;87.00;;;;;;4973173;29;20024;-80
2022/01/08 12:50:39;;;;;;;27.77;16.13;;;1.90;90.20;;;;;;4957530;28;19915;-80
2022/01/08 12:53:05;;;;;;;17.92;9.38;;;2.00;88.90;;;;;;4958496;29;20046;-80
2022/01/08 12:55:34;;;;;;;;;;;1.90;88.10;;;;;;4975176;28;20012;-80
2022/01/08 12:58:01;;;;;;;24.70;14.68;;;1.90;87.40;;;;;;4959147;28;19941;-80
2022/01/08 13:00:27;;;;;;;24.20;14.27;;;1.80;86.90;;;;;;4955636;29;20036;-80
2022/01/08 13:02:53;;;;;;;;;;;1.90;88.30;;;;;;4973369;28;20040;-80
2022/01/08 13:05:18;;;;;;;17.40;7.82;;;2.00;87.70;;;;;;4974051;28;20002;-80
2022/01/08 13:07:51;;;;;;;;;;;1.90;86.60;;;;;;4952426;28;20036;-80
2022/01/08 13:10:18;;;;;;;15.02;7.32;;;1.90;86.70;;;;;;4959648;28;19956;-80
2022/01/08 13:13:01;;;;;;;11.43;6.13;;;1.90;87.50;;;;;;4960955;28;20019;-80
2022/01/08 13:15:31;;;;;;;15.30;6.88;;;1.90;86.70;;;;;;4958709;29;20023;-80
2022/01/08 13:18:20;;;;;;;16.13;7.57;;;1.90;86.60;;;;;;4978443;28;20027;-80
2022/01/08 13:20:46;;;;;;;11.45;6.25;;;1.90;86.80;;;;;;4958020;29;20018;-80
2022/01/08 13:23:13;;;;;;;;;;;1.90;87.30;;;;;;4977522;28;20035;-80
2022/01/08 13:25:39;;;;;;;14.93;7.65;;;1.90;84.70;;;;;;4962779;28;19938;-80
2022/01/08 13:28:05;;;;;;;22.52;9.65;;;1.80;85.00;;;;;;4959095;29;20115;-80
2022/01/08 13:30:31;;;;;;;;;;;1.80;85.50;;;;;;4963317;28;20031;-80
2022/01/08 13:33:01;;;;;;;23.58;11.65;;;1.70;86.60;;;;;;4964777;28;19915;-80
2022/01/08 13:35:26;;;;;;;23.73;11.00;;;1.80;87.70;;;;;;4977098;28;20078;-80
2022/01/08 13:37:52;;;;;;;;;;;1.70;87.80;;;;;;4963122;28;20019;-80